INFORMACIÓN METAR y TAF
METAR FOR EPGD
ADDS - METARS form results

(2317 UTC 23 May 2019)
Data provider http://aviationweather.gov/metar/data/
 
METAR text: EPGD 232300Z 28007KT 9999 FEW020 09/07 Q1014
Conditions at: EPGD (GDANSK/REBIECHOW, PL) observed 2300 UTC 23 May 2019
Temperature: 9.0°C (48°F)
Dewpoint: 7.0°C (45°F) [RH = 87%]
Pressure (altimeter): 29.94 inches Hg (1014.0 mb)
Winds: from the W (280 degrees) at 8 MPH (7 knots; 3.6 m/s)
Visibility: 6 or more miles (10+ km)
Ceiling: at least 12,000 feet AGL
Clouds: few clouds at 2000 feet AGL
Weather: no significant weather observed at this time

METAR text: EPGD 232230Z 28008KT CAVOK 09/07 Q1014
Conditions at: EPGD (GDANSK/REBIECHOW, PL) observed 2230 UTC 23 May 2019
Temperature: 9.0°C (48°F)
Dewpoint: 7.0°C (45°F) [RH = 87%]
Pressure (altimeter): 29.94 inches Hg (1014.0 mb)
Winds: from the W (280 degrees) at 9 MPH (8 knots; 4.1 m/s)
Visibility: 6 or more miles (10+ km)
Ceiling: ceiling and visibility are OK
Clouds: unknown
Weather: no significant weather observed at this time

Forecast for: EPGD (GDANSK/REBIECHOW, PL)
Text: TAF EPGD 231730Z 2318/2418 30011KT 9999 BKN030
Forecast period: 1800 UTC 23 May 2019 to 0800 UTC 24 May 2019
Forecast type: FROM: standard forecast or significant change
Winds: from the WNW (300 degrees) at 13 MPH (11 knots; 5.7 m/s)
Visibility: 6 or more miles 10+ km)
Ceiling: 3000 feet AGL
Clouds: broken clouds at 3000 feet AGL
Weather: no significant weather forecast for this period
Text: BECMG 2408/2411 01010KT
Forecast period: 0800 to 1800 UTC 24 May 2019
Forecast type: BECOMING: Conditions expected to become as follows by 1100 UTC 24 May 2019
Winds: from the N (10 degrees) at 12 MPH (10 knots; 5.1 m/s)
Visibility: 6 or more miles 10+ km)
Ceiling: 3000 feet AGL
Clouds: broken clouds at 3000 feet AGL
Weather: no significant weather forecast for this period

 MAPA DE AEROPUERTO

 INFORMACIÓN DE PISTA
Pista 11 Longitud 9186 ft Ancho 148 ft
Elevación 450 ft Umbral desplazado 0 ft Rumbo de pista 113
Pista 29 Longitud 9186 ft Ancho 148 ft
Elevación 489 ft Umbral desplazado 0 ft Rumbo de pista 293

 FRECUANCIAS DEL AEROPUERTO
Tipo APP Nombre GDANSK APP Frecuencia 127.275 MHZ
Tipo ATIS Nombre ATIS Frecuencia 129.625 MHZ
Tipo TWR Nombre GDANSK TWR Frecuencia 118.1 MHZ

 RADIO AYUDAS DEL AEROPUERTO
Tipo NDB Nombre Gdansk Frecuencia 322 KHZ
Tipo VOR-DME Nombre Kartuzy Frecuencia 113200 KHZ
Tipo NDB Nombre Gdansk Frecuencia 383 KHZ



              


PayPal

©2019 Oasis Virtual Airlines
Simulando desde el 2013

Oasis Líneas Aéreas Virtuales no está relacionada con ninguna compañía real.
Se trata de un entorno virtual de simulación aérea, sin ánimo de lucro.


Visitas:

VAM v2.6.2 [MOD.]